createdAt,value
2022-11-24T00:01:17.833Z,18.95
2022-11-24T00:03:47.215Z,19.77
2022-11-24T00:06:15.641Z,20.30
2022-11-24T00:08:44.646Z,19.87
2022-11-24T00:11:17.921Z,18.90
2022-11-24T00:13:45.755Z,19.08
2022-11-24T00:16:15.881Z,17.50
2022-11-24T00:18:44.994Z,17.65
2022-11-24T00:21:13.596Z,17.20
2022-11-24T00:23:41.366Z,16.75
2022-11-24T00:26:11.311Z,15.73
2022-11-24T00:28:40.122Z,16.23
2022-11-24T00:31:21.749Z,15.50
2022-11-24T00:33:51.363Z,16.45
2022-11-24T00:36:22.377Z,15.10
2022-11-24T00:38:57.757Z,16.15
2022-11-24T00:41:26.153Z,14.65
2022-11-24T00:43:54.317Z,15.32
2022-11-24T00:46:22.041Z,15.10
2022-11-24T00:48:49.462Z,15.05
2022-11-24T00:51:18.594Z,15.98
2022-11-24T00:53:46.185Z,16.30
2022-11-24T00:56:14.025Z,15.23
2022-11-24T00:58:41.695Z,14.63
2022-11-24T01:01:12.649Z,15.63
2022-11-24T01:03:40.374Z,15.88
2022-11-24T01:06:12.055Z,14.30
2022-11-24T01:08:40.279Z,16.00
2022-11-24T01:11:20.718Z,16.90
2022-11-24T01:13:51.909Z,16.87
2022-11-24T01:16:22.593Z,18.83
2022-11-24T01:18:50.259Z,20.35
2022-11-24T01:21:18.160Z,18.58
2022-11-24T01:23:46.195Z,19.62
2022-11-24T01:26:16.268Z,20.95
2022-11-24T01:28:47.406Z,22.10
2022-11-24T01:31:15.669Z,20.02
2022-11-24T01:33:43.272Z,20.83
2022-11-24T01:36:10.683Z,22.23
2022-11-24T01:38:38.389Z,23.33
2022-11-24T01:41:17.933Z,22.65
2022-11-24T01:43:46.420Z,21.27
2022-11-24T01:46:28.006Z,22.02
2022-11-24T01:49:18.167Z,23.25
2022-11-24T01:52:01.363Z,24.02
2022-11-24T01:54:32.411Z,23.38
2022-11-24T01:57:09.761Z,21.83
2022-11-24T01:59:37.619Z,23.80
2022-11-24T02:02:05.101Z,22.73
2022-11-24T02:04:34.451Z,25.15
2022-11-24T02:07:03.638Z,22.60
2022-11-24T02:09:36.437Z,21.20
2022-11-24T02:12:04.916Z,22.73
2022-11-24T02:14:35.871Z,24.20
2022-11-24T02:17:03.932Z,24.52
2022-11-24T02:19:40.308Z,25.88
2022-11-24T02:22:13.373Z,25.90
2022-11-24T02:24:50.926Z,23.33
2022-11-24T02:27:19.359Z,23.52
2022-11-24T02:29:46.795Z,25.12
2022-11-24T02:32:14.442Z,23.65
2022-11-24T02:34:42.139Z,26.27
2022-11-24T02:37:09.509Z,26.23
2022-11-24T02:39:37.934Z,27.65
2022-11-24T02:42:08.931Z,25.15
2022-11-24T02:44:39.914Z,26.08
2022-11-24T02:47:10.416Z,24.92
2022-11-24T02:49:37.990Z,27.23
2022-11-24T02:52:05.987Z,26.80
2022-11-24T02:54:33.951Z,29.40
2022-11-24T02:57:01.538Z,30.55
2022-11-24T02:59:28.881Z,29.73
2022-11-24T03:01:56.516Z,31.98
2022-11-24T03:04:23.916Z,30.73
2022-11-24T03:06:51.537Z,27.33
2022-11-24T03:09:19.167Z,26.37
2022-11-24T03:11:46.618Z,27.15
2022-11-24T03:14:13.964Z,25.92
2022-11-24T03:16:41.566Z,25.27
2022-11-24T03:19:08.950Z,25.83
2022-11-24T03:21:36.713Z,25.80
2022-11-24T03:24:04.645Z,26.12
2022-11-24T03:26:34.158Z,23.35
2022-11-24T03:29:02.040Z,25.52
2022-11-24T03:31:29.814Z,25.17
2022-11-24T03:33:57.239Z,27.42
2022-11-24T03:36:24.721Z,27.25
2022-11-24T03:38:52.515Z,25.42
2022-11-24T03:41:19.869Z,24.35
2022-11-24T03:43:47.271Z,27.05
2022-11-24T03:46:14.993Z,27.73
2022-11-24T03:48:42.403Z,28.05
2022-11-24T03:51:10.314Z,26.20
2022-11-24T03:53:37.962Z,23.08
2022-11-24T03:56:05.378Z,27.27
2022-11-24T03:58:32.804Z,30.12
2022-11-24T04:01:00.415Z,27.90
2022-11-24T04:03:28.099Z,28.95
2022-11-24T04:05:55.488Z,27.67
2022-11-24T04:08:22.948Z,27.75
2022-11-24T04:10:52.452Z,25.27
2022-11-24T04:13:22.427Z,24.10
2022-11-24T04:15:50.088Z,28.42
2022-11-24T04:18:18.213Z,27.20
2022-11-24T04:20:45.858Z,25.30
2022-11-24T04:23:13.303Z,30.58
2022-11-24T04:25:43.469Z,28.77
2022-11-24T04:28:11.267Z,24.87
2022-11-24T04:30:40.493Z,27.80
2022-11-24T04:33:08.117Z,25.05
2022-11-24T04:35:35.514Z,25.17
2022-11-24T04:38:03.103Z,29.92
2022-11-24T04:40:30.749Z,28.52
2022-11-24T04:42:58.127Z,27.17
2022-11-24T04:45:25.460Z,26.27
2022-11-24T04:47:53.096Z,31.52
2022-11-24T04:50:20.830Z,29.48
2022-11-24T04:52:48.264Z,28.60
2022-11-24T04:55:15.934Z,28.77
2022-11-24T04:57:43.316Z,30.55
2022-11-24T05:00:11.563Z,24.15
2022-11-24T05:02:39.354Z,29.00
2022-11-24T05:05:07.371Z,29.37
2022-11-24T05:07:35.022Z,28.85
2022-11-24T05:10:21.439Z,28.90
2022-11-24T05:12:56.565Z,28.52
2022-11-24T05:15:24.206Z,23.40
2022-11-24T05:17:51.877Z,27.37
2022-11-24T05:20:19.763Z,26.23
2022-11-24T05:22:47.451Z,27.45
2022-11-24T05:25:14.831Z,27.15
2022-11-24T05:27:42.211Z,26.73
2022-11-24T05:30:10.347Z,24.35
2022-11-24T05:32:37.667Z,25.37
2022-11-24T05:35:05.448Z,28.52
2022-11-24T05:37:33.088Z,25.88
2022-11-24T05:40:00.416Z,26.05
2022-11-24T05:42:47.181Z,22.80
2022-11-24T05:45:17.999Z,25.08
2022-11-24T05:47:46.167Z,25.67
2022-11-24T05:50:15.218Z,24.58
2022-11-24T05:52:43.204Z,23.38
2022-11-24T05:55:11.104Z,24.75
2022-11-24T05:57:38.419Z,22.02
2022-11-24T06:00:07.196Z,23.50
2022-11-24T06:02:39.839Z,22.65
2022-11-24T06:05:07.822Z,22.00
2022-11-24T06:07:35.199Z,22.35
2022-11-24T06:10:02.750Z,22.37
2022-11-24T06:12:30.382Z,22.80
2022-11-24T06:14:57.758Z,23.58
2022-11-24T06:17:25.425Z,21.90
2022-11-24T06:19:53.081Z,23.05
2022-11-24T06:22:20.470Z,24.05
2022-11-24T06:24:47.853Z,22.27
2022-11-24T06:27:15.420Z,24.08
2022-11-24T06:29:42.951Z,22.50
2022-11-24T06:32:10.249Z,21.20
2022-11-24T06:34:37.903Z,21.67
2022-11-24T06:37:05.241Z,23.20
2022-11-24T06:39:32.792Z,23.77
2022-11-24T06:42:00.447Z,23.10
2022-11-24T06:44:27.795Z,22.77
2022-11-24T06:46:55.301Z,22.62
2022-11-24T06:49:23.284Z,20.42
2022-11-24T06:51:50.815Z,20.88
2022-11-24T06:54:21.138Z,21.73
2022-11-24T06:56:48.794Z,21.52
2022-11-24T06:59:18.674Z,22.00
2022-11-24T07:01:47.605Z,22.45
2022-11-24T07:04:15.554Z,18.30
2022-11-24T07:06:43.601Z,20.73
2022-11-24T07:09:12.110Z,19.67
2022-11-24T07:11:40.182Z,21.12
2022-11-24T07:14:07.640Z,21.90
2022-11-24T07:16:35.797Z,20.73
2022-11-24T07:19:03.619Z,19.62
2022-11-24T07:21:31.026Z,21.92
2022-11-24T07:23:58.829Z,21.08
2022-11-24T07:26:26.669Z,20.67
2022-11-24T07:28:54.148Z,20.00
2022-11-24T07:31:25.061Z,19.92
2022-11-24T07:33:54.509Z,19.15
2022-11-24T07:36:22.809Z,19.75
2022-11-24T07:38:50.211Z,19.17
2022-11-24T07:41:22.175Z,19.48
2022-11-24T07:43:50.655Z,18.20
2022-11-24T07:46:19.544Z,20.48
2022-11-24T07:48:47.302Z,19.25
2022-11-24T07:51:15.644Z,16.67
2022-11-24T07:53:43.833Z,18.00
2022-11-24T07:56:13.227Z,20.17
2022-11-24T07:58:40.612Z,19.20
2022-11-24T08:01:16.557Z,18.02
2022-11-24T08:03:45.201Z,18.30
2022-11-24T08:06:35.379Z,18.50
2022-11-24T08:09:00.682Z,19.70
2022-11-24T08:11:28.426Z,20.30
2022-11-24T08:13:55.801Z,21.73
2022-11-24T08:16:23.679Z,24.80
2022-11-24T08:18:54.085Z,21.73
2022-11-24T08:21:23.443Z,22.33
2022-11-24T08:23:56.067Z,23.23
2022-11-24T08:26:24.978Z,21.05
2022-11-24T08:28:55.248Z,20.98
2022-11-24T08:31:22.929Z,21.55
2022-11-24T08:33:50.340Z,21.15
2022-11-24T08:36:19.058Z,18.87
2022-11-24T08:38:46.597Z,19.40
2022-11-24T08:41:15.452Z,15.02
2022-11-24T08:43:43.189Z,19.12
2022-11-24T08:46:13.247Z,18.42
2022-11-24T08:48:41.582Z,16.10
2022-11-24T08:51:15.500Z,19.83
2022-11-24T08:53:43.479Z,17.52
2022-11-24T08:56:12.098Z,18.00
2022-11-24T08:58:40.134Z,19.35
2022-11-24T09:01:15.471Z,19.73
2022-11-24T09:03:50.098Z,17.10
2022-11-24T09:06:19.464Z,20.25
2022-11-24T09:08:47.082Z,18.77
2022-11-24T09:11:16.533Z,20.33
2022-11-24T09:13:44.153Z,17.73
2022-11-24T09:16:17.271Z,23.52
2022-11-24T09:18:45.761Z,20.30
2022-11-24T09:21:18.912Z,25.37
2022-11-24T09:23:50.687Z,27.08
2022-11-24T09:26:19.580Z,19.27
2022-11-24T09:28:47.210Z,21.75
2022-11-24T09:31:17.149Z,19.90
2022-11-24T09:33:45.541Z,18.95
2022-11-24T09:36:13.513Z,20.00
2022-11-24T09:38:41.056Z,22.87
2022-11-24T09:41:17.530Z,21.02
2022-11-24T09:44:09.294Z,22.52
2022-11-24T09:46:55.804Z,17.62
2022-11-24T09:49:51.503Z,17.50
2022-11-24T09:52:26.611Z,19.42
2022-11-24T09:54:58.921Z,21.83
2022-11-24T09:57:31.473Z,19.33
2022-11-24T10:00:10.066Z,21.23
2022-11-24T10:02:39.339Z,22.02
2022-11-24T10:05:07.392Z,23.55
2022-11-24T10:07:43.966Z,22.58
2022-11-24T10:10:15.760Z,20.90
2022-11-24T10:12:54.047Z,18.17
2022-11-24T10:15:51.766Z,19.98
2022-11-24T10:18:27.917Z,19.40
2022-11-24T10:21:30.971Z,19.45
2022-11-24T10:24:12.605Z,16.40
2022-11-24T10:26:45.645Z,17.85
2022-11-24T10:29:13.736Z,15.43
2022-11-24T10:31:43.222Z,17.80
2022-11-24T10:34:14.585Z,16.95
2022-11-24T10:36:54.435Z,17.33
2022-11-24T10:39:37.005Z,18.05
2022-11-24T10:42:14.505Z,17.00
2022-11-24T10:44:42.247Z,16.77
2022-11-24T10:47:19.088Z,16.10
2022-11-24T10:49:56.925Z,13.82
2022-11-24T10:52:25.657Z,17.90
2022-11-24T10:54:58.653Z,18.30
2022-11-24T10:57:32.291Z,16.05
2022-11-24T11:00:00.553Z,17.70
2022-11-24T11:02:32.366Z,15.93
2022-11-24T11:05:31.583Z,16.83
2022-11-24T11:08:14.560Z,13.50
2022-11-24T11:10:43.422Z,14.13
2022-11-24T11:13:23.341Z,15.13
2022-11-24T11:15:51.459Z,12.68
2022-11-24T11:18:19.992Z,11.15
2022-11-24T11:20:55.047Z,11.35
2022-11-24T11:23:26.951Z,9.88
2022-11-24T11:26:22.601Z,11.85
2022-11-24T11:35:12.075Z,10.25
2022-11-24T11:37:39.397Z,9.82
2022-11-24T11:40:14.340Z,9.02
2022-11-24T11:43:01.844Z,11.40
2022-11-24T11:45:38.182Z,11.77
2022-11-24T11:48:26.996Z,10.52
2022-11-24T11:51:22.268Z,10.65
2022-11-24T11:54:06.781Z,11.60
2022-11-24T11:57:06.636Z,10.50
2022-11-24T11:59:55.030Z,10.18
2022-11-24T12:02:59.570Z,7.87
2022-11-24T12:05:33.194Z,9.63
2022-11-24T12:08:21.494Z,10.63
2022-11-24T12:10:57.342Z,9.95
2022-11-24T12:13:43.373Z,8.32
2022-11-24T12:16:48.051Z,9.73
2022-11-24T12:19:48.656Z,9.35
2022-11-24T12:22:42.655Z,8.93
2022-11-24T12:25:26.591Z,8.75
2022-11-24T12:28:06.859Z,9.13
2022-11-24T12:31:08.993Z,8.75
2022-11-24T12:33:50.925Z,8.13
2022-11-24T12:36:41.566Z,9.18
2022-11-24T12:39:19.686Z,8.40
2022-11-24T12:41:54.772Z,8.55
2022-11-24T12:44:47.224Z,8.25
2022-11-24T12:47:33.242Z,9.48
2022-11-24T12:50:13.352Z,7.75
2022-11-24T12:52:46.042Z,8.60
2022-11-24T12:55:18.983Z,7.95
2022-11-24T12:57:56.175Z,7.62
2022-11-24T13:00:31.425Z,7.30
2022-11-24T13:05:51.629Z,7.40
2022-11-24T13:08:19.401Z,6.97
2022-11-24T13:14:02.435Z,7.85
2022-11-24T13:16:48.728Z,8.18
2022-11-24T13:19:21.061Z,9.70
2022-11-24T13:21:56.828Z,11.45
2022-11-24T13:24:30.873Z,10.98
2022-11-24T13:27:14.203Z,11.20
2022-11-24T13:29:46.062Z,19.52
2022-11-24T13:32:17.657Z,10.85
2022-11-24T13:34:49.875Z,9.30
2022-11-24T13:37:33.550Z,10.90
2022-11-24T13:40:12.393Z,12.40
2022-11-24T13:42:58.820Z,11.18
2022-11-24T13:45:49.608Z,12.68
2022-11-24T13:48:20.493Z,12.27
2022-11-24T13:50:51.094Z,15.45
2022-11-24T13:53:34.886Z,13.15
2022-11-24T13:56:15.084Z,12.30
2022-11-24T13:58:47.440Z,10.75
2022-11-24T14:01:16.392Z,13.90
2022-11-24T14:04:21.609Z,10.38
2022-11-24T14:06:48.493Z,8.80
2022-11-24T14:09:47.963Z,10.77
2022-11-24T14:12:20.969Z,11.98
2022-11-24T14:14:50.304Z,11.93
2022-11-24T14:17:23.179Z,10.50
2022-11-24T14:19:52.800Z,10.30
2022-11-24T14:22:24.443Z,9.63
2022-11-24T14:24:56.555Z,12.48
2022-11-24T14:27:30.618Z,12.65
2022-11-24T14:30:03.825Z,8.10
2022-11-24T14:32:31.600Z,8.75
2022-11-24T14:34:59.464Z,9.73
2022-11-24T14:37:26.930Z,8.13
2022-11-24T14:39:54.303Z,12.88
2022-11-24T14:42:24.328Z,9.65
2022-11-24T14:44:51.765Z,9.75
2022-11-24T14:47:30.218Z,9.60
2022-11-24T14:50:08.061Z,8.50
2022-11-24T14:52:35.828Z,11.45
2022-11-24T14:55:21.946Z,11.43
2022-11-24T14:57:52.741Z,11.45
2022-11-24T15:00:29.871Z,12.98
2022-11-24T15:03:17.146Z,10.65
2022-11-24T15:05:59.259Z,13.23
2022-11-24T15:08:28.484Z,9.60
2022-11-24T15:11:01.196Z,12.85
2022-11-24T15:13:32.827Z,10.60
2022-11-24T15:16:08.317Z,13.73
2022-11-24T15:18:39.572Z,12.07
2022-11-24T15:21:07.865Z,13.93
2022-11-24T15:23:36.459Z,10.27
2022-11-24T15:26:03.838Z,12.18
2022-11-24T15:28:31.661Z,11.27
2022-11-24T15:31:04.604Z,11.68
2022-11-24T15:33:32.698Z,12.13
2022-11-24T15:36:00.067Z,11.40
2022-11-24T15:38:27.470Z,16.10
2022-11-24T15:40:57.890Z,14.82
2022-11-24T15:43:44.583Z,12.80
2022-11-24T15:46:12.651Z,12.18
2022-11-24T15:48:40.002Z,12.88
2022-11-24T15:51:11.953Z,11.10
2022-11-24T15:53:42.303Z,11.18
2022-11-24T15:56:16.015Z,10.48
2022-11-24T15:58:43.609Z,14.77
2022-11-24T16:01:10.940Z,13.05
2022-11-24T16:03:47.150Z,13.80
2022-11-24T16:06:24.115Z,12.80
2022-11-24T16:08:53.985Z,15.85
2022-11-24T16:11:21.874Z,11.65
2022-11-24T16:13:53.080Z,10.55
2022-11-24T16:16:22.954Z,11.93
2022-11-24T16:18:50.761Z,11.38
2022-11-24T16:21:18.198Z,10.65
2022-11-24T16:23:46.563Z,11.55
2022-11-24T16:26:13.902Z,17.92
2022-11-24T16:28:42.312Z,17.35
2022-11-24T16:31:10.043Z,17.10
2022-11-24T16:33:40.668Z,14.63
2022-11-24T16:36:08.903Z,15.23
2022-11-24T16:38:36.682Z,13.52
2022-11-24T16:41:04.356Z,15.48
2022-11-24T16:43:32.181Z,13.27
2022-11-24T16:46:09.075Z,15.15
2022-11-24T16:48:37.144Z,13.60
2022-11-24T16:51:06.761Z,15.95
2022-11-24T16:53:34.148Z,14.20
2022-11-24T16:56:01.808Z,13.52
2022-11-24T16:58:30.104Z,13.20
2022-11-24T17:01:05.381Z,12.68
2022-11-24T17:03:33.866Z,12.85
2022-11-24T17:06:01.273Z,12.77
2022-11-24T17:08:36.184Z,11.75
2022-11-24T17:11:14.896Z,12.48
2022-11-24T17:13:42.655Z,11.68
2022-11-24T17:16:13.681Z,12.00
2022-11-24T17:18:41.847Z,11.63
2022-11-24T17:21:18.712Z,11.35
2022-11-24T17:23:49.137Z,11.43
2022-11-24T17:26:17.513Z,11.10
2022-11-24T17:28:45.097Z,12.45
2022-11-24T17:31:26.044Z,12.80
2022-11-24T17:33:56.467Z,12.27
2022-11-24T17:36:24.581Z,11.77
2022-11-24T17:38:52.599Z,12.60
2022-11-24T17:41:20.782Z,11.70
2022-11-24T17:43:50.601Z,11.65
2022-11-24T17:46:18.836Z,12.75
2022-11-24T17:48:47.342Z,11.95
2022-11-24T17:51:17.904Z,11.75
2022-11-24T17:53:47.318Z,13.30
2022-11-24T17:56:17.387Z,13.05
2022-11-24T17:58:45.100Z,11.82
2022-11-24T18:01:13.715Z,12.77
2022-11-24T18:03:41.948Z,13.18
2022-11-24T18:06:12.037Z,12.02
2022-11-24T18:08:41.398Z,13.90
2022-11-24T18:11:22.680Z,12.13
2022-11-24T18:14:01.224Z,13.52
2022-11-24T18:16:31.454Z,15.18
2022-11-24T18:19:10.744Z,14.15
2022-11-24T18:21:40.941Z,16.80
2022-11-24T18:24:10.336Z,13.73
2022-11-24T18:26:39.140Z,13.10
2022-11-24T18:29:08.184Z,14.15
2022-11-24T18:31:36.191Z,14.85
2022-11-24T18:34:05.691Z,16.48
2022-11-24T18:36:37.743Z,16.12
2022-11-24T18:39:07.581Z,17.30
2022-11-24T18:41:35.858Z,18.73
2022-11-24T18:44:07.747Z,14.93
2022-11-24T18:46:36.494Z,14.95
2022-11-24T18:49:04.797Z,15.80
2022-11-24T18:51:32.893Z,18.33
2022-11-24T18:54:04.225Z,17.40
2022-11-24T18:56:34.741Z,18.30
2022-11-24T18:59:04.186Z,17.70
2022-11-24T19:01:32.362Z,15.10
2022-11-24T19:04:02.097Z,13.68
2022-11-24T19:06:35.351Z,13.43
2022-11-24T19:09:08.709Z,14.13
2022-11-24T19:11:38.704Z,14.55
2022-11-24T19:14:09.130Z,13.88
2022-11-24T19:16:38.127Z,13.75
2022-11-24T19:19:06.400Z,15.00
2022-11-24T19:21:37.691Z,13.57
2022-11-24T19:24:07.276Z,13.95
2022-11-24T19:26:35.457Z,13.77
2022-11-24T19:29:04.577Z,14.85
2022-11-24T19:31:33.853Z,14.75
2022-11-24T19:34:03.120Z,15.77
2022-11-24T19:36:30.856Z,15.48
2022-11-24T19:39:00.292Z,17.52
2022-11-24T19:41:30.214Z,16.42
2022-11-24T19:43:59.140Z,16.77
2022-11-24T19:46:29.541Z,15.98
2022-11-24T19:49:00.242Z,14.98
2022-11-24T19:51:34.005Z,16.20
2022-11-24T19:54:03.180Z,16.50
2022-11-24T19:56:35.687Z,15.57
2022-11-24T19:59:05.697Z,14.77
2022-11-24T20:01:41.689Z,15.18
2022-11-24T20:04:12.714Z,16.33
2022-11-24T20:06:42.623Z,14.90
2022-11-24T20:09:15.894Z,15.63
2022-11-24T20:11:44.409Z,15.80
2022-11-24T20:14:14.582Z,14.10
2022-11-24T20:16:42.728Z,13.93
2022-11-24T20:19:13.398Z,15.18
2022-11-24T20:21:47.040Z,15.25
2022-11-24T20:24:16.653Z,16.37
2022-11-24T20:26:50.740Z,19.77
2022-11-24T20:29:19.358Z,17.00
2022-11-24T20:31:49.821Z,15.35
2022-11-24T20:34:23.896Z,14.57
2022-11-24T20:36:53.491Z,14.98
2022-11-24T20:39:26.284Z,16.40
2022-11-24T20:41:56.054Z,15.88
2022-11-24T20:44:25.325Z,15.15
2022-11-24T20:46:56.226Z,15.02
2022-11-24T20:49:25.452Z,14.93
2022-11-24T20:51:55.363Z,15.95
2022-11-24T20:54:23.873Z,16.50
2022-11-24T20:56:51.846Z,17.02
2022-11-24T20:59:22.252Z,17.40
2022-11-24T21:01:51.518Z,17.67
2022-11-24T21:04:25.762Z,16.00
2022-11-24T21:06:53.357Z,16.30
2022-11-24T21:09:21.759Z,16.73
2022-11-24T21:11:49.479Z,16.42
2022-11-24T21:14:16.988Z,16.48
2022-11-24T21:16:45.343Z,17.58
2022-11-24T21:19:14.977Z,16.55
2022-11-24T21:21:43.376Z,15.93
2022-11-24T21:24:16.462Z,17.48
2022-11-24T21:26:47.748Z,16.62
2022-11-24T21:29:22.371Z,17.40
2022-11-24T21:31:51.390Z,17.17
2022-11-24T21:34:19.460Z,17.65
2022-11-24T21:36:47.897Z,16.10
2022-11-24T21:39:15.831Z,16.23
2022-11-24T21:41:44.081Z,16.25
2022-11-24T21:44:13.430Z,16.25
2022-11-24T21:46:45.949Z,16.20
2022-11-24T21:49:18.652Z,15.60
2022-11-24T21:51:45.970Z,17.17
2022-11-24T21:54:13.293Z,16.48
2022-11-24T21:56:40.961Z,18.05
2022-11-24T21:59:08.618Z,17.20
2022-11-24T22:01:35.954Z,17.00
2022-11-24T22:04:03.614Z,17.52
2022-11-24T22:06:33.206Z,17.58
2022-11-24T22:09:01.728Z,17.17
2022-11-24T22:11:29.317Z,18.00
2022-11-24T22:13:56.881Z,16.27
2022-11-24T22:16:24.928Z,18.23
2022-11-24T22:18:52.804Z,17.25
2022-11-24T22:21:29.981Z,16.48
2022-11-24T22:23:57.672Z,16.62
2022-11-24T22:26:25.591Z,16.42
2022-11-24T22:28:57.076Z,17.67
2022-11-24T22:31:29.488Z,16.70
2022-11-24T22:33:57.787Z,17.48
2022-11-24T22:36:27.597Z,17.10
2022-11-24T22:38:56.198Z,17.48
2022-11-24T22:41:23.838Z,17.70
2022-11-24T22:43:51.603Z,18.20
2022-11-24T22:46:21.118Z,17.35
2022-11-24T22:48:49.922Z,17.87
2022-11-24T22:51:23.513Z,18.25
2022-11-24T22:53:53.428Z,17.90
2022-11-24T22:56:21.541Z,19.52
2022-11-24T22:58:48.956Z,18.62
2022-11-24T23:01:21.221Z,17.90
2022-11-24T23:03:49.472Z,18.62
2022-11-24T23:06:18.895Z,17.35
2022-11-24T23:08:46.657Z,16.67
2022-11-24T23:11:17.726Z,17.73
2022-11-24T23:13:45.053Z,16.33
2022-11-24T23:16:17.626Z,17.67
2022-11-24T23:18:49.878Z,16.90
2022-11-24T23:21:23.036Z,17.35
2022-11-24T23:23:51.201Z,19.52
2022-11-24T23:26:22.150Z,18.95
2022-11-24T23:28:49.515Z,17.67
2022-11-24T23:31:20.767Z,17.20
2022-11-24T23:33:48.265Z,15.57
2022-11-24T23:36:17.481Z,17.23
2022-11-24T23:38:45.449Z,15.27
2022-11-24T23:41:31.876Z,16.40
2022-11-24T23:44:00.150Z,16.67
2022-11-24T23:46:28.105Z,16.23
2022-11-24T23:48:56.332Z,15.48
2022-11-24T23:51:26.340Z,15.02
2022-11-24T23:53:54.346Z,17.17
2022-11-24T23:56:26.502Z,18.25
2022-11-24T23:58:54.241Z,17.90
